Breckenridge, Illinois
Current Conditions -  °F | °C
As of 6:52 PM on Friday 24 Oct 2014 (Local Time) from KSPI Reporting Station
Clear Clear  
Wind Chill: 60°   Ceiling: Unl
Heat Index: 60°   Visibility: 10mi
Dew Point: 50°   Wind: 7mph
Humidity: 69%   Direction: 160°SSE
Pressure: 29.98"   Gusts: NA
Location:  39.7312°N, 89.5322°W
Report Text: KSPI 242352Z 16006KT 10SM CLR 16/10 A2998 RMK AO2 SLP152 T01560100 10217 20150 56008
Loading
Personal Weather Stations






























Interactive Weather Map New forecast layout! Learn more

10-Day Weather Forecast

Advertisements
Track Severe Weather on mobile